Time;durP1;ratioP1;P1;durP2;ratioP2;P2;SDS_P1;SDS_P2;PMS_P1;PMS_P2;Temp;Humidity;BMP_temperature;BMP_pressure;BME280_temperature;BME280_humidity;BME280_pressure;Samples;Min_cycle;Max_cycle;Signal;HPM_P1;HPM_P2
2021/07/31 00:00:41;;;;;;;13.73;4.63;;;;;;;;;;4973641;28;20065;-70
2021/07/31 00:03:07;;;;;;;15.88;4.43;;;;;;;;;;4972895;28;20026;-70
2021/07/31 00:05:33;;;;;;;18.70;4.75;;;;;;;;;;4972161;28;20603;-70
2021/07/31 00:07:59;;;;;;;11.63;4.10;;;;;;;;;;4964732;28;20125;-69
2021/07/31 00:10:24;;;;;;;14.18;4.57;;;;;;;;;;4970594;28;20469;-70
2021/07/31 00:12:50;;;;;;;8.43;3.78;;;;;;;;;;4973152;28;20388;-70
2021/07/31 00:15:16;;;;;;;13.00;4.85;;;;;;;;;;4973368;28;20058;-70
2021/07/31 00:17:42;;;;;;;8.75;3.70;;;;;;;;;;4972657;28;20552;-70
2021/07/31 00:20:08;;;;;;;9.57;3.63;;;;;;;;;;4973245;28;20031;-70
2021/07/31 00:22:34;;;;;;;8.15;2.97;;;;;;;;;;4973451;28;20034;-70
2021/07/31 00:25:00;;;;;;;16.00;3.78;;;;;;;;;;4966715;28;20477;-69
2021/07/31 00:27:26;;;;;;;10.30;4.28;;;;;;;;;;4970349;28;20066;-70
2021/07/31 00:29:53;;;;;;;14.00;3.90;;;;;;;;;;4968983;28;20535;-70
2021/07/31 00:32:19;;;;;;;7.93;3.50;;;;;;;;;;4973380;28;20387;-70
2021/07/31 00:34:45;;;;;;;9.73;3.78;;;;;;;;;;4981858;28;20062;-70
2021/07/31 00:37:11;;;;;;;7.82;3.20;;;;;;;;;;4980821;28;20030;-70
2021/07/31 00:39:39;;;;;;;10.35;3.13;;;;;;;;;;4986453;28;20046;-70
2021/07/31 00:42:06;;;;;;;9.95;3.08;;;;;;;;;;4987508;28;20138;-70
2021/07/31 00:44:32;;;;;;;11.35;3.65;;;;;;;;;;4987852;28;20046;-70
2021/07/31 00:46:58;;;;;;;10.73;4.22;;;;;;;;;;4975311;28;20081;-70
2021/07/31 00:49:24;;;;;;;8.80;3.50;;;;;;;;;;4982750;28;20031;-69
2021/07/31 00:51:50;;;;;;;13.38;3.38;;;;;;;;;;4965792;28;20804;-69
2021/07/31 00:54:16;;;;;;;9.32;3.60;;;;;;;;;;4973319;28;20496;-69
2021/07/31 00:56:43;;;;;;;11.05;3.92;;;;;;;;;;4965613;28;20046;-70
2021/07/31 00:59:10;;;;;;;13.05;3.70;;;;;;;;;;4971931;28;20073;-70
2021/07/31 01:01:35;;;;;;;12.65;3.95;;;;;;;;;;4976354;28;20111;-70
2021/07/31 01:04:01;;;;;;;10.30;3.70;;;;;;;;;;4971540;28;20109;-70
2021/07/31 01:06:27;;;;;;;10.38;3.28;;;;;;;;;;4970230;28;20019;-70
2021/07/31 01:08:53;;;;;;;9.00;3.35;;;;;;;;;;4971656;28;20076;-70
2021/07/31 01:11:19;;;;;;;13.27;3.20;;;;;;;;;;4972214;28;20571;-70
2021/07/31 01:13:46;;;;;;;8.32;3.28;;;;;;;;;;4972148;28;20483;-70
2021/07/31 01:16:12;;;;;;;8.68;2.70;;;;;;;;;;4968910;28;20074;-70
2021/07/31 01:18:38;;;;;;;12.80;3.65;;;;;;;;;;4972940;28;20658;-70
2021/07/31 01:21:04;;;;;;;8.02;3.88;;;;;;;;;;4972389;28;20027;-70
2021/07/31 01:23:30;;;;;;;15.50;4.32;;;;;;;;;;4972149;28;20459;-70
2021/07/31 01:25:56;;;;;;;10.13;4.22;;;;;;;;;;4972259;28;20051;-70
2021/07/31 01:28:23;;;;;;;10.68;3.88;;;;;;;;;;4972593;28;20043;-70
2021/07/31 01:30:49;;;;;;;13.30;4.00;;;;;;;;;;4971219;28;20031;-70
2021/07/31 01:33:15;;;;;;;16.60;3.78;;;;;;;;;;4971786;28;20050;-70
2021/07/31 01:35:41;;;;;;;9.65;4.30;;;;;;;;;;4971845;28;20022;-69
2021/07/31 01:38:07;;;;;;;10.40;3.38;;;;;;;;;;4969208;28;20094;-70
2021/07/31 01:40:33;;;;;;;13.07;4.55;;;;;;;;;;4965778;28;20117;-70
2021/07/31 01:42:59;;;;;;;11.68;4.38;;;;;;;;;;4971703;28;20043;-70
2021/07/31 01:45:26;;;;;;;8.68;3.47;;;;;;;;;;4971567;28;20072;-70
2021/07/31 01:47:52;;;;;;;6.68;3.90;;;;;;;;;;4970289;28;20477;-69
2021/07/31 01:50:18;;;;;;;10.15;3.95;;;;;;;;;;4971444;28;20026;-70
2021/07/31 01:52:45;;;;;;;10.07;3.13;;;;;;;;;;4970768;28;20022;-70
2021/07/31 01:55:11;;;;;;;14.93;3.55;;;;;;;;;;4971536;28;20031;-70
2021/07/31 01:57:37;;;;;;;8.05;3.60;;;;;;;;;;4971212;28;20026;-70
2021/07/31 02:00:03;;;;;;;10.68;3.30;;;;;;;;;;4966379;28;20031;-70
2021/07/31 02:02:29;;;;;;;11.63;4.10;;;;;;;;;;4967314;28;20392;-70
2021/07/31 02:04:55;;;;;;;13.88;4.07;;;;;;;;;;4966951;28;20030;-70
2021/07/31 02:07:21;;;;;;;12.63;5.00;;;;;;;;;;4969837;28;20030;-70
2021/07/31 02:09:47;;;;;;;16.95;5.43;;;;;;;;;;4970756;28;20026;-70
2021/07/31 02:12:13;;;;;;;20.63;4.53;;;;;;;;;;4970911;28;20027;-69
2021/07/31 02:14:40;;;;;;;12.25;4.60;;;;;;;;;;4971286;28;20523;-70
2021/07/31 02:17:06;;;;;;;11.00;5.22;;;;;;;;;;4969161;28;20019;-70
2021/07/31 02:19:32;;;;;;;19.88;5.63;;;;;;;;;;4969789;28;20022;-69
2021/07/31 02:21:59;;;;;;;12.10;5.25;;;;;;;;;;4971140;28;20543;-70
2021/07/31 02:24:25;;;;;;;22.38;6.22;;;;;;;;;;4968955;28;20022;-69
2021/07/31 02:26:50;;;;;;;16.48;4.85;;;;;;;;;;4969659;28;20488;-70
2021/07/31 02:29:17;;;;;;;17.73;4.43;;;;;;;;;;4968817;28;20026;-70
2021/07/31 02:31:43;;;;;;;15.43;4.40;;;;;;;;;;4964492;28;20033;-70
2021/07/31 02:34:09;;;;;;;13.65;4.65;;;;;;;;;;4970542;28;20065;-70
2021/07/31 02:36:35;;;;;;;14.50;4.38;;;;;;;;;;4965593;28;20055;-70
2021/07/31 02:39:01;;;;;;;15.52;6.03;;;;;;;;;;4970681;28;20054;-70
2021/07/31 02:41:27;;;;;;;20.45;4.53;;;;;;;;;;4969166;28;20106;-70
2021/07/31 02:43:53;;;;;;;18.83;5.15;;;;;;;;;;4971373;28;20031;-70
2021/07/31 02:46:19;;;;;;;20.02;5.65;;;;;;;;;;4970299;28;20050;-70
2021/07/31 02:48:45;;;;;;;15.38;5.75;;;;;;;;;;4972453;28;20551;-69
2021/07/31 02:51:12;;;;;;;17.02;4.88;;;;;;;;;;4974646;28;20070;-69
2021/07/31 02:53:38;;;;;;;14.82;5.70;;;;;;;;;;4974781;28;20031;-70
2021/07/31 02:56:05;;;;;;;17.05;5.88;;;;;;;;;;4974575;28;20038;-70
2021/07/31 02:58:31;;;;;;;21.25;6.68;;;;;;;;;;4975520;28;20023;-70
2021/07/31 03:00:57;;;;;;;11.48;4.85;;;;;;;;;;4967560;28;20026;-70
2021/07/31 03:03:23;;;;;;;16.23;5.63;;;;;;;;;;4974423;28;20506;-70
2021/07/31 03:05:56;;;;;;;13.38;5.13;;;;;;;;;;4974869;28;20105;-70
2021/07/31 03:08:22;;;;;;;18.45;5.70;;;;;;;;;;4974366;28;20457;-70
2021/07/31 03:10:58;;;;;;;13.40;6.35;;;;;;;;;;4977367;28;20030;-70
2021/07/31 03:13:24;;;;;;;16.30;6.80;;;;;;;;;;4981985;28;20408;-70
2021/07/31 03:15:49;;;;;;;20.58;6.95;;;;;;;;;;4978124;28;20072;-69
2021/07/31 03:18:16;;;;;;;15.95;6.53;;;;;;;;;;4984084;28;20035;-70
2021/07/31 03:20:45;;;;;;;12.85;5.55;;;;;;;;;;4983953;28;20023;-70
2021/07/31 03:23:12;;;;;;;13.18;6.53;;;;;;;;;;4980109;28;20088;-70
2021/07/31 03:25:38;;;;;;;9.95;5.28;;;;;;;;;;4979407;28;20107;-70
2021/07/31 03:28:04;;;;;;;13.63;5.18;;;;;;;;;;4975915;28;20078;-69
2021/07/31 03:30:30;;;;;;;12.90;4.93;;;;;;;;;;4974207;28;20039;-69
2021/07/31 03:32:56;;;;;;;9.73;4.90;;;;;;;;;;4972902;28;20026;-69
2021/07/31 03:35:22;;;;;;;17.67;5.47;;;;;;;;;;4973934;28;20495;-69
2021/07/31 03:37:48;;;;;;;14.15;6.28;;;;;;;;;;4972609;28;20034;-69
2021/07/31 03:40:14;;;;;;;13.23;5.38;;;;;;;;;;4970780;28;20042;-70
2021/07/31 03:42:40;;;;;;;9.63;5.15;;;;;;;;;;4973657;28;20033;-69
2021/07/31 03:45:06;;;;;;;11.32;5.30;;;;;;;;;;4969326;28;20031;-69
2021/07/31 03:47:32;;;;;;;15.57;5.32;;;;;;;;;;4971310;28;20253;-69
2021/07/31 03:49:58;;;;;;;10.63;4.80;;;;;;;;;;4972739;28;20536;-69
2021/07/31 03:52:24;;;;;;;11.65;3.75;;;;;;;;;;4971973;28;20158;-69
2021/07/31 03:54:49;;;;;;;13.60;4.18;;;;;;;;;;4972994;28;20027;-69
2021/07/31 03:57:15;;;;;;;12.23;4.10;;;;;;;;;;4973183;28;20106;-69
2021/07/31 03:59:41;;;;;;;14.63;4.68;;;;;;;;;;4972334;28;20459;-69
2021/07/31 04:02:07;;;;;;;6.45;3.08;;;;;;;;;;4973090;28;20519;-69
2021/07/31 04:04:34;;;;;;;7.43;3.67;;;;;;;;;;4961097;28;20043;-69
2021/07/31 04:07:00;;;;;;;5.15;2.78;;;;;;;;;;4971714;28;20027;-70
2021/07/31 04:09:26;;;;;;;8.98;2.97;;;;;;;;;;4972512;28;20026;-69
2021/07/31 04:11:52;;;;;;;6.78;3.42;;;;;;;;;;4972087;28;20027;-69
2021/07/31 04:14:18;;;;;;;10.77;3.22;;;;;;;;;;4970401;28;20030;-69
2021/07/31 04:16:44;;;;;;;6.68;3.13;;;;;;;;;;4972228;28;20027;-69
2021/07/31 04:19:11;;;;;;;10.98;3.70;;;;;;;;;;4971581;28;20042;-69
2021/07/31 04:21:37;;;;;;;8.90;4.28;;;;;;;;;;4972605;28;20022;-69
2021/07/31 04:24:03;;;;;;;14.43;3.50;;;;;;;;;;4972229;28;20558;-69
2021/07/31 04:26:29;;;;;;;8.55;3.70;;;;;;;;;;4959286;28;20422;-69
2021/07/31 04:28:55;;;;;;;10.35;4.28;;;;;;;;;;4971294;28;20085;-69
2021/07/31 04:31:21;;;;;;;7.28;3.63;;;;;;;;;;4971663;28;20165;-70
2021/07/31 04:33:47;;;;;;;9.27;3.83;;;;;;;;;;4969794;28;20026;-70
2021/07/31 04:36:13;;;;;;;21.60;4.30;;;;;;;;;;4971543;28;20026;-69
2021/07/31 04:38:39;;;;;;;11.18;4.38;;;;;;;;;;4971747;28;20023;-69
2021/07/31 04:41:05;;;;;;;10.10;4.38;;;;;;;;;;4972012;28;20392;-69
2021/07/31 04:43:32;;;;;;;6.82;3.97;;;;;;;;;;4971372;28;20031;-69
2021/07/31 04:45:58;;;;;;;13.02;4.05;;;;;;;;;;4972046;28;20019;-69
2021/07/31 04:48:24;;;;;;;10.13;4.28;;;;;;;;;;4971599;28;20088;-69
2021/07/31 04:51:00;;;;;;;8.82;4.57;;;;;;;;;;4968102;28;20105;-69
2021/07/31 04:53:27;;;;;;;8.35;4.40;;;;;;;;;;4969366;28;20050;-69
2021/07/31 04:55:54;;;;;;;11.82;4.20;;;;;;;;;;4971876;28;20023;-69
2021/07/31 04:58:20;;;;;;;14.23;4.35;;;;;;;;;;4969711;28;20023;-69
2021/07/31 05:00:46;;;;;;;10.50;4.13;;;;;;;;;;4972084;28;20038;-69
2021/07/31 05:03:13;;;;;;;11.05;4.00;;;;;;;;;;4967572;28;20428;-69
2021/07/31 05:05:39;;;;;;;10.43;3.95;;;;;;;;;;4971026;28;20057;-69
2021/07/31 05:08:05;;;;;;;14.68;4.15;;;;;;;;;;4970919;28;20480;-69
2021/07/31 05:10:31;;;;;;;8.55;4.47;;;;;;;;;;4970616;28;20023;-69
2021/07/31 05:12:57;;;;;;;11.75;3.85;;;;;;;;;;4971464;28;20483;-69
2021/07/31 05:15:23;;;;;;;14.68;5.07;;;;;;;;;;4969989;28;20022;-69
2021/07/31 05:17:49;;;;;;;8.50;4.15;;;;;;;;;;4967868;28;20481;-69
2021/07/31 05:20:15;;;;;;;9.75;4.32;;;;;;;;;;4971962;28;20031;-69
2021/07/31 05:22:41;;;;;;;10.75;4.97;;;;;;;;;;4970246;28;20023;-69
2021/07/31 05:25:07;;;;;;;13.52;4.68;;;;;;;;;;4969880;28;20033;-69
2021/07/31 05:27:33;;;;;;;12.55;4.07;;;;;;;;;;4936342;28;1010437;-69
2021/07/31 05:29:59;;;;;;;10.68;4.28;;;;;;;;;;4967747;28;20378;-69
2021/07/31 05:32:25;;;;;;;9.23;4.00;;;;;;;;;;4970696;28;20027;-69
2021/07/31 05:34:54;;;;;;;12.23;3.53;;;;;;;;;;4971968;28;20023;-69
2021/07/31 05:37:20;;;;;;;11.40;4.35;;;;;;;;;;4970240;28;20424;-69
2021/07/31 05:39:46;;;;;;;8.45;3.70;;;;;;;;;;4968903;28;20038;-69
2021/07/31 05:42:12;;;;;;;6.47;3.72;;;;;;;;;;4967112;28;20069;-69
2021/07/31 05:44:38;;;;;;;9.30;4.55;;;;;;;;;;4971270;28;20038;-69
2021/07/31 05:47:04;;;;;;;10.63;4.05;;;;;;;;;;4970919;28;20037;-69
2021/07/31 05:49:30;;;;;;;7.53;4.07;;;;;;;;;;4972229;28;20110;-69
2021/07/31 05:51:56;;;;;;;8.50;4.05;;;;;;;;;;4970447;28;20082;-69
2021/07/31 05:54:22;;;;;;;5.38;3.20;;;;;;;;;;4986197;28;20030;-69
2021/07/31 05:56:49;;;;;;;9.02;3.88;;;;;;;;;;4993949;28;20031;-69
2021/07/31 05:59:16;;;;;;;11.77;3.72;;;;;;;;;;4991363;28;20037;-70
2021/07/31 06:01:42;;;;;;;9.02;3.38;;;;;;;;;;4969475;28;20031;-69
2021/07/31 06:04:07;;;;;;;10.43;3.85;;;;;;;;;;4971500;28;20034;-69
2021/07/31 06:06:33;;;;;;;8.88;3.65;;;;;;;;;;4963057;28;20070;-69
2021/07/31 06:09:00;;;;;;;9.18;4.15;;;;;;;;;;4971465;28;20428;-69
2021/07/31 06:11:26;;;;;;;12.32;4.05;;;;;;;;;;4971240;28;20540;-69
2021/07/31 06:13:52;;;;;;;10.80;4.05;;;;;;;;;;4966404;28;20023;-69
2021/07/31 06:16:18;;;;;;;10.55;3.13;;;;;;;;;;4971522;28;20054;-69
2021/07/31 06:18:44;;;;;;;12.07;3.92;;;;;;;;;;4969784;28;20019;-69
2021/07/31 06:21:17;;;;;;;6.45;3.15;;;;;;;;;;4967181;28;20046;-69
2021/07/31 06:23:44;;;;;;;14.82;3.53;;;;;;;;;;4970790;28;20026;-69
2021/07/31 06:26:10;;;;;;;8.65;2.63;;;;;;;;;;4971613;28;20543;-69
2021/07/31 06:28:36;;;;;;;7.15;3.83;;;;;;;;;;4969601;28;20039;-69
2021/07/31 06:31:04;;;;;;;7.65;2.72;;;;;;;;;;4970862;28;20031;-69
2021/07/31 06:33:30;;;;;;;10.32;2.95;;;;;;;;;;4971258;28;20034;-69
2021/07/31 06:35:56;;;;;;;11.13;2.80;;;;;;;;;;4965301;28;20397;-69
2021/07/31 06:38:22;;;;;;;7.07;3.08;;;;;;;;;;4967954;28;20364;-69
2021/07/31 06:40:48;;;;;;;9.10;2.78;;;;;;;;;;4967375;28;20070;-69
2021/07/31 06:43:14;;;;;;;8.25;3.25;;;;;;;;;;4960117;28;20031;-69
2021/07/31 06:45:40;;;;;;;7.07;2.33;;;;;;;;;;4968501;28;20038;-69
2021/07/31 06:48:06;;;;;;;11.48;2.97;;;;;;;;;;4966341;28;20018;-69
2021/07/31 06:50:32;;;;;;;5.57;2.25;;;;;;;;;;4970277;28;20396;-69
2021/07/31 06:52:58;;;;;;;9.93;2.97;;;;;;;;;;4970235;28;20031;-69
2021/07/31 06:55:24;;;;;;;11.32;2.80;;;;;;;;;;4970494;28;20018;-69
2021/07/31 06:57:50;;;;;;;11.10;3.42;;;;;;;;;;4970310;28;20034;-69
2021/07/31 07:00:16;;;;;;;4.10;2.17;;;;;;;;;;4969952;28;20035;-69
2021/07/31 07:02:42;;;;;;;11.07;2.72;;;;;;;;;;4970665;28;20026;-69
2021/07/31 07:05:08;;;;;;;7.88;2.75;;;;;;;;;;4970122;28;20037;-69
2021/07/31 07:07:34;;;;;;;8.35;2.22;;;;;;;;;;4970044;28;20559;-69
2021/07/31 07:10:00;;;;;;;6.60;1.92;;;;;;;;;;4970129;28;20035;-69
2021/07/31 07:12:26;;;;;;;5.15;1.88;;;;;;;;;;4968354;28;20023;-69
2021/07/31 07:14:52;;;;;;;4.88;1.88;;;;;;;;;;4970492;28;20022;-69
2021/07/31 07:17:18;;;;;;;8.93;2.28;;;;;;;;;;4968115;28;20470;-69
2021/07/31 07:19:44;;;;;;;9.48;2.10;;;;;;;;;;4967458;28;20034;-69
2021/07/31 07:22:10;;;;;;;6.57;1.88;;;;;;;;;;4969040;28;20065;-69
2021/07/31 07:24:36;;;;;;;7.07;2.28;;;;;;;;;;4956926;28;20054;-69
2021/07/31 07:27:02;;;;;;;8.68;2.03;;;;;;;;;;4970282;28;20031;-69
2021/07/31 07:29:28;;;;;;;9.27;2.55;;;;;;;;;;4963587;28;20019;-70
2021/07/31 07:31:54;;;;;;;9.05;2.25;;;;;;;;;;4969296;28;20530;-69
2021/07/31 07:34:20;;;;;;;11.07;2.83;;;;;;;;;;4969852;28;20590;-69
2021/07/31 07:36:45;;;;;;;13.43;2.50;;;;;;;;;;4972273;28;20026;-69
2021/07/31 07:39:11;;;;;;;8.88;2.97;;;;;;;;;;4972703;28;20026;-69
2021/07/31 07:41:37;;;;;;;6.88;2.72;;;;;;;;;;4961683;28;20042;-69
2021/07/31 07:44:03;;;;;;;8.25;1.90;;;;;;;;;;4963889;28;20543;-69
2021/07/31 07:46:29;;;;;;;12.32;2.88;;;;;;;;;;4970995;28;20022;-69
2021/07/31 07:48:55;;;;;;;3.20;1.58;;;;;;;;;;4972499;28;20386;-69
2021/07/31 07:51:21;;;;;;;5.25;1.75;;;;;;;;;;4962104;28;20484;-69
2021/07/31 07:53:47;;;;;;;7.70;2.20;;;;;;;;;;4971936;28;20023;-69
2021/07/31 07:56:13;;;;;;;6.22;2.63;;;;;;;;;;4970945;28;20026;-69
2021/07/31 07:58:39;;;;;;;10.43;2.47;;;;;;;;;;4972165;28;20033;-69
2021/07/31 08:01:08;;;;;;;6.03;2.33;;;;;;;;;;4968428;28;20093;-69
2021/07/31 08:03:34;;;;;;;9.82;2.70;;;;;;;;;;4969343;28;20041;-70
2021/07/31 08:06:00;;;;;;;5.32;2.25;;;;;;;;;;4973180;28;20038;-70
2021/07/31 08:08:28;;;;;;;4.97;2.33;;;;;;;;;;4967774;28;20326;-71
2021/07/31 08:10:54;;;;;;;5.10;1.77;;;;;;;;;;4972350;28;20383;-71
2021/07/31 08:13:20;;;;;;;5.05;1.95;;;;;;;;;;4970937;28;20019;-71
2021/07/31 08:15:46;;;;;;;6.57;2.53;;;;;;;;;;4966980;28;20601;-70
2021/07/31 08:18:12;;;;;;;5.72;2.28;;;;;;;;;;4970574;28;20597;-70
2021/07/31 08:20:38;;;;;;;10.25;2.90;;;;;;;;;;4970455;28;20030;-70
2021/07/31 08:23:04;;;;;;;10.95;3.22;;;;;;;;;;4969245;28;20031;-70
2021/07/31 08:25:30;;;;;;;5.00;2.40;;;;;;;;;;4970275;28;20456;-70
2021/07/31 08:27:56;;;;;;;8.05;2.30;;;;;;;;;;4970706;28;20049;-70
2021/07/31 08:30:22;;;;;;;5.72;1.95;;;;;;;;;;4972972;28;20392;-70
2021/07/31 08:32:48;;;;;;;7.28;2.75;;;;;;;;;;4980189;28;20023;-70
2021/07/31 08:35:14;;;;;;;6.70;3.08;;;;;;;;;;4975778;28;20102;-70
2021/07/31 08:37:40;;;;;;;7.55;2.50;;;;;;;;;;4974188;28;20026;-70
2021/07/31 08:40:07;;;;;;;5.25;2.50;;;;;;;;;;4973229;28;20039;-71
2021/07/31 08:42:35;;;;;;;6.65;2.10;;;;;;;;;;4971720;28;20507;-70
2021/07/31 08:45:02;;;;;;;8.65;2.88;;;;;;;;;;4968197;28;20035;-70
2021/07/31 08:47:29;;;;;;;6.03;2.90;;;;;;;;;;4969771;28;20117;-70
2021/07/31 08:49:55;;;;;;;6.35;2.63;;;;;;;;;;4972473;28;20035;-70
2021/07/31 08:52:23;;;;;;;7.63;2.28;;;;;;;;;;4969434;28;20031;-70
2021/07/31 08:54:49;;;;;;;10.77;2.55;;;;;;;;;;4972620;28;20033;-70
2021/07/31 08:57:15;;;;;;;11.52;2.20;;;;;;;;;;4972243;28;20027;-70
2021/07/31 08:59:41;;;;;;;4.43;1.95;;;;;;;;;;4970027;28;20158;-70
2021/07/31 09:02:08;;;;;;;14.38;2.30;;;;;;;;;;4969690;28;20424;-70
2021/07/31 09:04:34;;;;;;;8.63;1.52;;;;;;;;;;4971922;28;20019;-71
2021/07/31 09:07:11;;;;;;;4.47;1.35;;;;;;;;;;4971966;28;20113;-70
2021/07/31 09:09:37;;;;;;;5.22;0.85;;;;;;;;;;4971600;28;20054;-70
2021/07/31 09:12:04;;;;;;;4.22;1.17;;;;;;;;;;4967778;28;20113;-71
2021/07/31 09:14:31;;;;;;;3.30;0.85;;;;;;;;;;4969743;28;20023;-71
2021/07/31 09:16:57;;;;;;;4.53;1.30;;;;;;;;;;4971671;28;20023;-70
2021/07/31 09:19:25;;;;;;;6.88;1.70;;;;;;;;;;4971362;28;20117;-71
2021/07/31 09:21:52;;;;;;;5.55;1.50;;;;;;;;;;4972334;28;20106;-70
2021/07/31 09:24:22;;;;;;;5.65;1.13;;;;;;;;;;4971100;28;20026;-70
2021/07/31 09:26:50;;;;;;;7.30;1.38;;;;;;;;;;4969370;28;20030;-70
2021/07/31 09:29:17;;;;;;;5.88;1.50;;;;;;;;;;4970796;28;20026;-70
2021/07/31 09:31:46;;;;;;;6.18;1.00;;;;;;;;;;4970730;28;20110;-70
2021/07/31 09:34:23;;;;;;;4.05;0.77;;;;;;;;;;4971200;28;20428;-69
2021/07/31 09:36:49;;;;;;;2.17;0.95;;;;;;;;;;4969137;28;20031;-69
2021/07/31 09:39:15;;;;;;;4.30;0.90;;;;;;;;;;4969692;28;20105;-69
2021/07/31 09:41:41;;;;;;;3.40;0.77;;;;;;;;;;4969643;28;20472;-69
2021/07/31 09:44:14;;;;;;;4.97;0.80;;;;;;;;;;4970681;28;20077;-69
2021/07/31 09:46:48;;;;;;;4.75;1.00;;;;;;;;;;4968851;28;20030;-69
2021/07/31 09:49:15;;;;;;;2.83;0.90;;;;;;;;;;4970435;28;20405;-69
2021/07/31 09:51:48;;;;;;;5.18;1.00;;;;;;;;;;4969855;28;20027;-69
2021/07/31 09:54:15;;;;;;;2.40;1.00;;;;;;;;;;4967870;28;20077;-69
2021/07/31 09:56:45;;;;;;;5.50;1.30;;;;;;;;;;4969565;28;20030;-69
2021/07/31 09:59:12;;;;;;;3.80;1.13;;;;;;;;;;4969767;28;20031;-69
2021/07/31 10:01:40;;;;;;;1.17;0.80;;;;;;;;;;4969888;28;20030;-69
2021/07/31 10:04:07;;;;;;;5.20;1.33;;;;;;;;;;4968921;28;20412;-69
2021/07/31 10:06:33;;;;;;;5.38;0.90;;;;;;;;;;4969751;28;20077;-69
2021/07/31 10:09:03;;;;;;;3.17;1.35;;;;;;;;;;4970699;28;20512;-69
2021/07/31 10:11:29;;;;;;;3.90;1.17;;;;;;;;;;4969090;28;20496;-69
2021/07/31 10:13:59;;;;;;;2.78;1.08;;;;;;;;;;4968110;28;20110;-69
2021/07/31 10:16:25;;;;;;;;;;;;;;;;;;4969418;28;20033;-69
2021/07/31 10:19:10;;;;;;;3.78;0.90;;;;;;;;;;4969865;28;20229;-69
2021/07/31 10:21:46;;;;;;;8.32;1.60;;;;;;;;;;4969837;28;20027;-69
2021/07/31 10:24:12;;;;;;;9.15;2.35;;;;;;;;;;4966594;28;20440;-69
2021/07/31 10:26:38;;;;;;;4.28;2.38;;;;;;;;;;4969847;28;20033;-69
2021/07/31 10:29:23;;;;;;;3.90;1.85;;;;;;;;;;4969271;28;20031;-69
2021/07/31 10:31:49;;;;;;;6.47;2.30;;;;;;;;;;4968277;28;20031;-69
2021/07/31 10:34:35;;;;;;;9.00;3.25;;;;;;;;;;4967930;28;20045;-69
2021/07/31 10:37:03;;;;;;;9.32;2.78;;;;;;;;;;4969100;28;20163;-70
2021/07/31 10:39:28;;;;;;;10.57;3.58;;;;;;;;;;4968513;28;20027;-69
2021/07/31 10:41:58;;;;;;;7.05;2.20;;;;;;;;;;4969352;28;20025;-69
2021/07/31 10:44:25;;;;;;;6.32;2.53;;;;;;;;;;4969585;28;20033;-68
2021/07/31 10:47:11;;;;;;;6.07;2.72;;;;;;;;;;4966158;28;20027;-68
2021/07/31 10:49:37;;;;;;;6.72;3.60;;;;;;;;;;4980829;28;20066;-68
2021/07/31 10:52:03;;;;;;;12.35;4.13;;;;;;;;;;4968357;28;20485;-68
2021/07/31 10:54:52;;;;;;;7.93;3.13;;;;;;;;;;4968145;28;20086;-69
2021/07/31 10:57:18;;;;;;;9.23;3.90;;;;;;;;;;4966914;28;20027;-67
2021/07/31 11:00:04;;;;;;;12.80;4.45;;;;;;;;;;4968027;28;20325;-68
2021/07/31 11:02:36;;;;;;;7.88;4.13;;;;;;;;;;4971758;28;20271;-68
2021/07/31 11:05:02;;;;;;;7.07;3.30;;;;;;;;;;4978731;28;20023;-68
2021/07/31 11:07:29;;;;;;;6.18;3.80;;;;;;;;;;4979760;28;20119;-70
2021/07/31 11:10:13;;;;;;;6.90;3.30;;;;;;;;;;4978181;28;20027;-69
2021/07/31 11:12:41;;;;;;;8.27;3.40;;;;;;;;;;4973570;28;20045;-68
2021/07/31 11:15:07;;;;;;;5.68;3.10;;;;;;;;;;4973238;28;20543;-68
2021/07/31 11:17:34;;;;;;;10.15;3.15;;;;;;;;;;4973153;28;20027;-68
2021/07/31 11:20:00;;;;;;;6.72;3.28;;;;;;;;;;4972225;28;20102;-69
2021/07/31 11:22:28;;;;;;;13.43;3.13;;;;;;;;;;4972413;28;20119;-69
2021/07/31 11:24:58;;;;;;;7.23;3.30;;;;;;;;;;4973326;28;20473;-68
2021/07/31 11:27:24;;;;;;;10.02;3.00;;;;;;;;;;4973342;28;20114;-69
2021/07/31 11:29:55;;;;;;;8.00;3.13;;;;;;;;;;4971742;28;20113;-69
2021/07/31 11:32:28;;;;;;;7.47;2.83;;;;;;;;;;4969087;28;20046;-68
2021/07/31 11:34:54;;;;;;;7.10;2.58;;;;;;;;;;4973436;28;20015;-69
2021/07/31 11:37:21;;;;;;;4.28;2.65;;;;;;;;;;4972921;28;20038;-71
2021/07/31 11:39:47;;;;;;;11.90;2.58;;;;;;;;;;4973022;28;20018;-69
2021/07/31 11:42:19;;;;;;;9.27;3.03;;;;;;;;;;4972317;28;20377;-70
2021/07/31 11:44:45;;;;;;;5.95;2.40;;;;;;;;;;4973168;28;20027;-70
2021/07/31 11:47:11;;;;;;;6.07;2.47;;;;;;;;;;4974134;28;20420;-69
2021/07/31 11:49:38;;;;;;;5.13;2.70;;;;;;;;;;4972309;28;20076;-69
2021/07/31 11:52:08;;;;;;;6.65;2.50;;;;;;;;;;4974079;28;20026;-70
2021/07/31 11:54:38;;;;;;;5.65;2.65;;;;;;;;;;4965115;28;20022;-69
2021/07/31 11:57:04;;;;;;;5.45;2.67;;;;;;;;;;4968164;28;20031;-69
2021/07/31 11:59:30;;;;;;;9.52;2.40;;;;;;;;;;4966654;28;20026;-69
2021/07/31 12:01:57;;;;;;;5.45;2.55;;;;;;;;;;4968375;28;20097;-69
2021/07/31 12:04:55;;;;;;;9.38;2.88;;;;;;;;;;4973748;28;20038;-69
2021/07/31 12:07:22;;;;;;;5.15;2.38;;;;;;;;;;4969177;28;20501;-69
2021/07/31 12:10:06;;;;;;;6.82;2.90;;;;;;;;;;4972818;28;20058;-69
2021/07/31 12:12:32;;;;;;;4.88;2.33;;;;;;;;;;4971161;28;20499;-69
2021/07/31 12:15:19;;;;;;;5.05;2.15;;;;;;;;;;4970643;28;20377;-70
2021/07/31 12:17:54;;;;;;;7.55;2.20;;;;;;;;;;4969828;28;21380;-69
2021/07/31 12:20:33;;;;;;;6.05;2.20;;;;;;;;;;4968597;28;20095;-70
2021/07/31 12:23:00;;;;;;;7.85;3.05;;;;;;;;;;4968754;28;20034;-70
2021/07/31 12:25:29;;;;;;;4.70;2.10;;;;;;;;;;4970209;28;20484;-70
2021/07/31 12:27:56;;;;;;;4.88;1.58;;;;;;;;;;4971436;28;20031;-70
2021/07/31 12:30:27;;;;;;;4.32;1.77;;;;;;;;;;4969635;28;20026;-69
2021/07/31 12:32:54;;;;;;;4.93;1.77;;;;;;;;;;4968253;28;20034;-69
2021/07/31 12:35:32;;;;;;;6.25;1.90;;;;;;;;;;4968939;28;20031;-69
2021/07/31 12:37:58;;;;;;;6.65;1.83;;;;;;;;;;4970410;28;20033;-69
2021/07/31 12:40:24;;;;;;;5.47;2.05;;;;;;;;;;4971382;28;20035;-69
2021/07/31 12:42:50;;;;;;;6.15;2.50;;;;;;;;;;4969752;28;20030;-69
2021/07/31 12:45:16;;;;;;;4.45;1.67;;;;;;;;;;4971152;28;20031;-70
2021/07/31 12:47:41;;;;;;;3.67;2.10;;;;;;;;;;4970196;28;20035;-69
2021/07/31 12:50:08;;;;;;;5.53;2.28;;;;;;;;;;4969961;28;20053;-70
2021/07/31 12:52:34;;;;;;;3.25;1.58;;;;;;;;;;4971325;28;20119;-69
2021/07/31 12:55:00;;;;;;;7.18;2.10;;;;;;;;;;4970586;28;20536;-69
2021/07/31 12:57:25;;;;;;;3.40;1.88;;;;;;;;;;4963250;28;20118;-69
2021/07/31 12:59:51;;;;;;;5.07;2.78;;;;;;;;;;4969583;28;20026;-69
2021/07/31 13:02:17;;;;;;;6.35;3.10;;;;;;;;;;4968305;28;20432;-70
2021/07/31 13:04:43;;;;;;;6.35;4.50;;;;;;;;;;4965471;28;20031;-71
2021/07/31 13:07:09;;;;;;;7.75;4.28;;;;;;;;;;4969862;28;20031;-68
2021/07/31 13:09:35;;;;;;;10.30;5.93;;;;;;;;;;4968217;28;20393;-71
2021/07/31 13:12:01;;;;;;;9.68;5.07;;;;;;;;;;4969035;28;20040;-72
2021/07/31 13:14:27;;;;;;;8.48;4.80;;;;;;;;;;4969466;28;20030;-69
2021/07/31 13:16:53;;;;;;;7.88;5.05;;;;;;;;;;4967832;28;20034;-69
2021/07/31 13:19:19;;;;;;;11.00;5.30;;;;;;;;;;4962143;28;20404;-69
2021/07/31 13:21:45;;;;;;;8.57;6.13;;;;;;;;;;4967161;28;20066;-69
2021/07/31 13:24:12;;;;;;;14.32;6.72;;;;;;;;;;4967131;28;20493;-69
2021/07/31 13:26:38;;;;;;;9.55;4.93;;;;;;;;;;4960147;28;20026;-69
2021/07/31 13:29:04;;;;;;;12.10;4.60;;;;;;;;;;4972862;28;20035;-70
2021/07/31 13:31:30;;;;;;;9.27;6.43;;;;;;;;;;4978733;28;20039;-70
2021/07/31 13:33:56;;;;;;;8.00;5.50;;;;;;;;;;4971465;28;20025;-70
2021/07/31 13:36:22;;;;;;;11.85;5.88;;;;;;;;;;4969581;28;20082;-70
2021/07/31 13:38:50;;;;;;;10.80;5.63;;;;;;;;;;4977270;28;20023;-70
2021/07/31 13:41:16;;;;;;;10.73;6.07;;;;;;;;;;4972636;28;20119;-70
2021/07/31 13:43:43;;;;;;;9.77;6.25;;;;;;;;;;4961662;28;20015;-70
2021/07/31 13:46:09;;;;;;;9.52;5.63;;;;;;;;;;4972528;28;20456;-69
2021/07/31 13:48:35;;;;;;;9.35;5.93;;;;;;;;;;4971632;28;20408;-69
2021/07/31 13:51:01;;;;;;;8.50;5.53;;;;;;;;;;4971716;28;20042;-70
2021/07/31 13:53:27;;;;;;;8.27;4.60;;;;;;;;;;4971935;28;20023;-69
2021/07/31 13:55:53;;;;;;;12.00;4.53;;;;;;;;;;4971863;28;20030;-69
2021/07/31 13:58:19;;;;;;;6.07;3.40;;;;;;;;;;4963332;28;20023;-69
2021/07/31 14:00:45;;;;;;;6.72;3.95;;;;;;;;;;4962786;28;20538;-69
2021/07/31 14:03:12;;;;;;;5.72;3.30;;;;;;;;;;4971077;28;20085;-69
2021/07/31 14:05:38;;;;;;;11.48;4.47;;;;;;;;;;4971956;28;20035;-69
2021/07/31 14:08:05;;;;;;;5.50;3.33;;;;;;;;;;4971100;28;20038;-69
2021/07/31 14:10:31;;;;;;;6.72;3.42;;;;;;;;;;4970591;28;20022;-69
2021/07/31 14:12:57;;;;;;;10.10;3.10;;;;;;;;;;4971631;28;20648;-69
2021/07/31 14:15:23;;;;;;;5.90;2.97;;;;;;;;;;4971648;28;20109;-69
2021/07/31 14:17:48;;;;;;;7.85;3.75;;;;;;;;;;4970948;28;20098;-69
2021/07/31 14:20:14;;;;;;;4.75;2.85;;;;;;;;;;4971517;28;20620;-69
2021/07/31 14:22:41;;;;;;;7.25;3.03;;;;;;;;;;4970394;28;20606;-69
2021/07/31 14:25:07;;;;;;;5.85;2.72;;;;;;;;;;4967956;28;20059;-69
2021/07/31 14:27:36;;;;;;;8.25;2.80;;;;;;;;;;4964878;28;20043;-69
2021/07/31 14:30:03;;;;;;;4.28;2.92;;;;;;;;;;4971404;28;20374;-69
2021/07/31 14:32:29;;;;;;;6.65;2.63;;;;;;;;;;4970497;28;20377;-69
2021/07/31 14:34:56;;;;;;;5.18;2.38;;;;;;;;;;4969355;28;20077;-69
2021/07/31 14:37:22;;;;;;;5.68;3.28;;;;;;;;;;4971343;28;20019;-69